createdAt,value
2018-10-19T00:01:31.611Z,60.43
2018-10-19T00:04:20.927Z,57.20
2018-10-19T00:07:09.031Z,68.17
2018-10-19T00:09:57.432Z,64.80
2018-10-19T00:12:45.895Z,60.00
2018-10-19T00:15:35.743Z,54.80
2018-10-19T00:18:24.918Z,60.53
2018-10-19T00:21:13.437Z,65.37
2018-10-19T00:24:03.856Z,55.80
2018-10-19T00:26:52.428Z,62.77
2018-10-19T00:29:41.229Z,60.43
2018-10-19T00:32:30.144Z,56.03
2018-10-19T00:35:18.907Z,56.00
2018-10-19T00:38:07.450Z,57.07
2018-10-19T00:40:55.502Z,62.23
2018-10-19T00:43:43.605Z,63.63
2018-10-19T00:46:32.159Z,62.97
2018-10-19T00:49:20.021Z,65.13
2018-10-19T00:52:07.757Z,56.63
2018-10-19T00:54:55.658Z,81.83
2018-10-19T00:57:43.103Z,60.10
2018-10-19T01:00:31.665Z,71.70
2018-10-19T01:03:19.904Z,69.30
2018-10-19T01:06:08.156Z,68.83
2018-10-19T01:08:57.048Z,66.50
2018-10-19T01:11:45.873Z,66.73
2018-10-19T01:14:34.335Z,63.90
2018-10-19T01:17:22.368Z,68.70
2018-10-19T01:20:10.603Z,71.33
2018-10-19T01:22:58.776Z,56.53
2018-10-19T01:25:47.193Z,62.60
2018-10-19T01:28:35.337Z,62.97
2018-10-19T01:31:24.575Z,64.03
2018-10-19T01:34:12.860Z,61.63
2018-10-19T01:37:00.770Z,66.77
2018-10-19T01:39:48.638Z,60.87
2018-10-19T01:42:40.534Z,71.33
2018-10-19T01:45:32.857Z,55.20
2018-10-19T01:48:22.373Z,63.40
2018-10-19T01:51:12.212Z,63.47
2018-10-19T01:54:03.407Z,63.20
2018-10-19T01:56:55.174Z,52.40
2018-10-19T01:59:45.804Z,67.87
2018-10-19T02:02:36.212Z,65.07
2018-10-19T02:05:26.502Z,59.93
2018-10-19T02:08:16.829Z,56.83
2018-10-19T02:11:10.470Z,68.87
2018-10-19T02:14:04.603Z,61.50
2018-10-19T02:16:58.537Z,66.30
2018-10-19T02:19:55.293Z,68.43
2018-10-19T02:22:48.602Z,70.73
2018-10-19T02:25:42.422Z,66.23
2018-10-19T02:28:38.498Z,58.93
2018-10-19T02:31:34.306Z,65.27
2018-10-19T02:34:28.217Z,61.17
2018-10-19T02:37:22.035Z,62.43
2018-10-19T02:40:16.608Z,76.47
2018-10-19T02:43:10.314Z,68.07
2018-10-19T02:46:03.104Z,63.50
2018-10-19T02:48:57.137Z,76.27
2018-10-19T02:51:50.790Z,64.65
2018-10-19T02:54:47.219Z,68.93
2018-10-19T02:57:43.404Z,71.27
2018-10-19T03:00:36.875Z,66.47
2018-10-19T03:03:30.530Z,65.50
2018-10-19T03:06:26.330Z,60.00
2018-10-19T03:09:24.472Z,54.87
2018-10-19T03:12:18.904Z,53.43
2018-10-19T03:15:14.125Z,60.30
2018-10-19T03:18:08.298Z,62.07
2018-10-19T03:21:03.992Z,68.30
2018-10-19T03:23:57.529Z,72.33
2018-10-19T03:26:52.420Z,62.80
2018-10-19T03:29:45.554Z,61.53
2018-10-19T03:32:39.251Z,56.70
2018-10-19T03:35:33.167Z,63.93
2018-10-19T03:38:26.965Z,76.07
2018-10-19T03:41:21.185Z,66.50
2018-10-19T03:44:14.840Z,62.20
2018-10-19T03:47:07.840Z,64.77
2018-10-19T03:50:04.494Z,73.17
2018-10-19T03:52:58.442Z,66.80
2018-10-19T03:55:52.202Z,60.58
2018-10-19T03:58:46.144Z,64.80
2018-10-19T04:01:41.995Z,61.90
2018-10-19T04:04:35.800Z,56.67
2018-10-19T04:07:28.707Z,62.63
2018-10-19T04:10:18.717Z,63.77
2018-10-19T04:13:12.452Z,66.77
2018-10-19T04:16:04.414Z,55.50
2018-10-19T04:18:57.081Z,61.17
2018-10-19T04:21:47.781Z,63.10
2018-10-19T04:24:36.243Z,68.80
2018-10-19T04:27:24.941Z,61.37
2018-10-19T04:30:13.592Z,62.27
2018-10-19T04:33:02.247Z,62.73
2018-10-19T04:35:54.268Z,65.63
2018-10-19T04:38:42.055Z,61.93
2018-10-19T04:41:31.025Z,71.37
2018-10-19T04:44:19.225Z,66.42
2018-10-19T04:47:08.627Z,74.50
2018-10-19T04:49:57.078Z,73.27
2018-10-19T04:52:45.237Z,60.28
2018-10-19T04:55:35.309Z,67.55
2018-10-19T04:58:24.882Z,68.83
2018-10-19T05:01:13.256Z,73.63
2018-10-19T05:04:02.566Z,72.22
2018-10-19T05:06:51.453Z,66.05
2018-10-19T05:09:39.884Z,65.63
2018-10-19T05:12:28.201Z,59.80
2018-10-19T05:15:16.667Z,67.23
2018-10-19T05:18:04.799Z,64.43
2018-10-19T05:20:52.658Z,65.80
2018-10-19T05:23:40.355Z,62.95
2018-10-19T05:26:28.926Z,65.63
2018-10-19T05:29:17.188Z,60.03
2018-10-19T05:32:08.281Z,63.55
2018-10-19T05:35:00.916Z,67.80
2018-10-19T05:37:52.521Z,66.90
2018-10-19T05:40:43.169Z,67.70
2018-10-19T05:43:33.507Z,70.57
2018-10-19T05:46:23.189Z,64.30
2018-10-19T05:49:11.279Z,70.17
2018-10-19T05:51:59.472Z,70.90
2018-10-19T05:54:48.922Z,69.97
2018-10-19T05:57:40.477Z,65.20
2018-10-19T06:00:32.699Z,61.63
2018-10-19T06:03:24.801Z,64.70
2018-10-19T06:06:16.372Z,67.25
2018-10-19T06:09:06.934Z,64.40
2018-10-19T06:11:57.080Z,76.37
2018-10-19T06:14:47.510Z,70.78
2018-10-19T06:17:37.257Z,70.97
2018-10-19T06:20:29.505Z,78.67
2018-10-19T06:23:18.653Z,62.37
2018-10-19T06:26:07.008Z,68.27
2018-10-19T06:28:56.429Z,68.23
2018-10-19T06:31:44.844Z,67.43
2018-10-19T06:34:33.196Z,68.53
2018-10-19T06:37:23.920Z,64.10
2018-10-19T06:40:14.278Z,58.38
2018-10-19T06:43:07.399Z,61.30
2018-10-19T06:45:58.970Z,66.97
2018-10-19T06:48:49.241Z,69.20
2018-10-19T06:51:42.851Z,62.90
2018-10-19T06:54:34.657Z,74.60
2018-10-19T06:57:26.374Z,70.35
2018-10-19T07:00:19.381Z,71.53
2018-10-19T07:03:12.401Z,58.87
2018-10-19T07:06:08.336Z,64.07
2018-10-19T07:08:59.355Z,62.78
2018-10-19T07:11:51.372Z,65.60
2018-10-19T07:14:43.251Z,68.95
2018-10-19T07:17:35.456Z,67.47
2018-10-19T07:20:27.120Z,67.03
2018-10-19T07:23:18.653Z,65.07
2018-10-19T07:26:11.835Z,71.83
2018-10-19T07:29:03.317Z,65.30
2018-10-19T07:31:53.840Z,65.70
2018-10-19T07:34:47.030Z,67.08
2018-10-19T07:37:40.754Z,67.42
2018-10-19T07:40:32.087Z,64.60
2018-10-19T07:43:23.530Z,67.87
2018-10-19T07:49:10.472Z,67.90
2018-10-19T07:52:01.359Z,65.60
2018-10-19T07:54:53.034Z,78.67
2018-10-19T07:57:44.276Z,66.40
2018-10-19T08:00:34.163Z,70.30
2018-10-19T08:03:24.882Z,71.87
2018-10-19T08:06:15.550Z,71.72
2018-10-19T08:09:07.026Z,68.87
2018-10-19T08:11:58.512Z,66.00
2018-10-19T08:14:49.777Z,73.10
2018-10-19T08:17:41.204Z,65.67
2018-10-19T08:20:33.099Z,68.02
2018-10-19T08:23:24.063Z,68.17
2018-10-19T08:26:16.038Z,66.03
2018-10-19T08:29:08.603Z,75.67
2018-10-19T08:31:59.641Z,72.53
2018-10-19T08:34:51.470Z,78.40
2018-10-19T08:37:42.722Z,76.37
2018-10-19T08:40:34.575Z,70.15
2018-10-19T08:43:26.475Z,70.93
2018-10-19T08:46:21.407Z,65.53
2018-10-19T08:49:14.691Z,74.87
2018-10-19T08:52:05.998Z,62.83
2018-10-19T08:54:58.088Z,64.90
2018-10-19T08:57:49.372Z,69.97
2018-10-19T09:00:41.172Z,67.87
2018-10-19T09:03:33.916Z,69.92
2018-10-19T09:06:25.220Z,71.97
2018-10-19T09:13:43.630Z,63.37
2018-10-19T09:16:34.542Z,68.50
2018-10-19T09:19:26.680Z,69.67
2018-10-19T09:22:18.351Z,69.17
2018-10-19T09:25:11.188Z,65.73
2018-10-19T09:28:02.999Z,74.00
2018-10-19T09:30:52.112Z,65.05
2018-10-19T09:33:42.970Z,61.30
2018-10-19T09:36:35.488Z,66.55
2018-10-19T09:39:26.810Z,64.97
2018-10-19T09:42:19.025Z,69.60
2018-10-19T09:45:09.974Z,70.40
2018-10-19T09:48:00.504Z,71.17
2018-10-19T09:50:51.101Z,71.40
2018-10-19T09:53:43.935Z,66.10
2018-10-19T09:56:35.244Z,65.00
2018-10-19T09:59:25.807Z,67.93
2018-10-19T10:02:16.814Z,65.75
2018-10-19T10:05:08.733Z,67.05
2018-10-19T10:08:00.077Z,67.93
2018-10-19T10:10:52.591Z,65.55
2018-10-19T10:13:43.595Z,68.60
2018-10-19T10:16:34.469Z,68.47
2018-10-19T10:19:25.832Z,71.20
2018-10-19T10:22:17.005Z,70.90
2018-10-19T10:25:07.460Z,71.33
2018-10-19T10:27:55.929Z,62.43
2018-10-19T10:30:43.831Z,65.13
2018-10-19T10:33:33.077Z,62.47
2018-10-19T10:36:22.276Z,68.75
2018-10-19T10:39:14.468Z,72.93
2018-10-19T10:42:03.031Z,65.57
2018-10-19T10:44:51.348Z,64.30
2018-10-19T10:47:39.916Z,62.25
2018-10-19T10:50:28.344Z,73.47
2018-10-19T10:53:15.922Z,67.22
2018-10-19T10:56:05.600Z,68.47
2018-10-19T10:58:57.264Z,69.50
2018-10-19T11:01:45.850Z,66.93
2018-10-19T11:04:33.616Z,62.80
2018-10-19T11:07:22.662Z,71.70
2018-10-19T11:10:15.147Z,70.75
2018-10-19T11:13:08.659Z,64.45
2018-10-19T11:16:01.603Z,68.12
2018-10-19T11:18:52.799Z,67.20
2018-10-19T11:21:44.306Z,71.45
2018-10-19T11:24:37.115Z,64.10
2018-10-19T11:27:28.863Z,68.90
2018-10-19T11:30:20.273Z,64.90
2018-10-19T11:33:13.746Z,70.03
2018-10-19T11:36:06.611Z,70.17
2018-10-19T11:38:57.627Z,70.47
2018-10-19T11:41:49.248Z,77.60
2018-10-19T11:44:40.021Z,76.80
2018-10-19T11:47:30.783Z,70.93
2018-10-19T11:50:20.403Z,75.83
2018-10-19T11:53:11.298Z,68.12
2018-10-19T11:56:02.168Z,75.57
2018-10-19T11:58:50.368Z,72.40
2018-10-19T12:01:38.355Z,72.67
2018-10-19T12:04:26.543Z,71.33
2018-10-19T12:07:14.872Z,74.73
2018-10-19T12:10:03.603Z,73.52
2018-10-19T12:12:52.363Z,70.70
2018-10-19T12:15:39.809Z,73.17
2018-10-19T12:18:30.631Z,74.20
2018-10-19T12:21:19.079Z,68.70
2018-10-19T12:24:07.444Z,73.90
2018-10-19T12:26:55.431Z,68.90
2018-10-19T12:29:43.312Z,75.47
2018-10-19T12:32:32.133Z,63.63
2018-10-19T12:35:19.976Z,65.77
2018-10-19T12:38:08.221Z,63.87
2018-10-19T12:40:56.514Z,69.40
2018-10-19T12:43:44.349Z,77.55
2018-10-19T12:46:42.128Z,67.37
2018-10-19T12:49:33.384Z,70.45
2018-10-19T12:52:25.698Z,64.22
2018-10-19T12:55:16.858Z,68.93
2018-10-19T12:58:10.045Z,71.95
2018-10-19T13:01:01.297Z,73.97
2018-10-19T13:03:52.671Z,67.95
2018-10-19T13:06:43.815Z,66.05
2018-10-19T13:09:35.389Z,66.67
2018-10-19T13:12:26.812Z,67.27
2018-10-19T13:15:17.754Z,65.27
2018-10-19T13:18:10.510Z,66.07
2018-10-19T13:21:01.851Z,70.60
2018-10-19T13:23:56.293Z,72.10
2018-10-19T13:26:47.009Z,70.60
2018-10-19T13:29:38.548Z,61.67
2018-10-19T13:32:31.459Z,70.63
2018-10-19T13:35:23.034Z,68.52
2018-10-19T13:38:14.644Z,67.50
2018-10-19T13:41:06.777Z,62.40
2018-10-19T13:43:58.797Z,61.45
2018-10-19T13:46:50.485Z,74.03
2018-10-19T13:49:41.666Z,66.70
2018-10-19T13:52:32.643Z,63.75
2018-10-19T13:55:22.424Z,74.45
2018-10-19T13:58:12.653Z,66.10
2018-10-19T14:01:03.415Z,69.85
2018-10-19T14:03:53.485Z,70.37
2018-10-19T14:06:43.985Z,67.53
2018-10-19T14:09:34.152Z,77.57
2018-10-19T14:12:25.766Z,70.12
2018-10-19T14:15:17.960Z,65.27
2018-10-19T14:18:09.872Z,70.32
2018-10-19T14:21:01.387Z,68.83
2018-10-19T14:23:53.289Z,64.35
2018-10-19T14:26:46.318Z,61.25
2018-10-19T14:29:38.135Z,65.20
2018-10-19T14:32:29.542Z,64.63
2018-10-19T14:35:20.703Z,64.17
2018-10-19T14:38:12.349Z,72.37
2018-10-19T14:41:04.019Z,71.17
2018-10-19T14:43:56.552Z,64.58
2018-10-19T14:46:48.975Z,63.70
2018-10-19T14:49:41.426Z,71.77
2018-10-19T14:52:33.054Z,76.15
2018-10-19T14:55:24.705Z,63.00
2018-10-19T14:58:15.966Z,63.05
2018-10-19T15:01:07.730Z,61.97
2018-10-19T15:03:58.970Z,71.47
2018-10-19T15:06:50.704Z,75.03
2018-10-19T15:09:43.541Z,75.20
2018-10-19T15:12:35.409Z,68.37
2018-10-19T15:15:25.174Z,78.57
2018-10-19T15:18:13.519Z,80.35
2018-10-19T15:21:02.107Z,70.27
2018-10-19T15:23:50.936Z,79.47
2018-10-19T15:26:39.591Z,66.10
2018-10-19T15:29:27.426Z,70.83
2018-10-19T15:32:18.546Z,68.17
2018-10-19T15:35:09.268Z,71.87
2018-10-19T15:38:00.488Z,72.23
2018-10-19T15:40:51.389Z,69.53
2018-10-19T15:43:42.260Z,73.00
2018-10-19T15:46:33.530Z,70.47
2018-10-19T15:49:25.204Z,70.10
2018-10-19T15:52:17.256Z,72.05
2018-10-19T15:55:09.150Z,76.27
2018-10-19T15:58:00.341Z,75.10
2018-10-19T16:00:51.978Z,71.60
2018-10-19T16:03:43.128Z,70.73
2018-10-19T16:06:34.343Z,69.87
2018-10-19T16:09:26.042Z,67.58
2018-10-19T16:12:16.483Z,74.07
2018-10-19T16:15:07.936Z,70.50
2018-10-19T16:17:59.836Z,71.22
2018-10-19T16:20:53.372Z,78.30
2018-10-19T16:23:41.856Z,65.75
2018-10-19T16:26:32.920Z,75.10
2018-10-19T16:29:24.649Z,79.07
2018-10-19T16:32:19.196Z,67.58
2018-10-19T16:35:07.657Z,73.50
2018-10-19T16:37:59.608Z,68.92
2018-10-19T16:40:50.420Z,75.90
2018-10-19T16:43:41.463Z,78.30
2018-10-19T16:46:32.967Z,73.10
2018-10-19T16:49:25.713Z,78.27
2018-10-19T16:52:17.277Z,71.87
2018-10-19T16:55:09.249Z,75.05
2018-10-19T16:58:00.861Z,71.33
2018-10-19T17:00:52.978Z,73.70
2018-10-19T17:03:44.014Z,70.47
2018-10-19T17:06:35.548Z,69.77
2018-10-19T17:09:26.678Z,65.03
2018-10-19T17:12:18.865Z,80.93
2018-10-19T17:15:09.760Z,76.43
2018-10-19T17:18:01.359Z,69.10
2018-10-19T17:20:51.553Z,74.77
2018-10-19T17:23:43.438Z,75.40
2018-10-19T17:26:36.083Z,73.47
2018-10-19T17:29:26.500Z,68.03
2018-10-19T17:32:15.404Z,79.82
2018-10-19T17:35:05.546Z,79.40
2018-10-19T17:37:55.662Z,87.77
2018-10-19T17:40:45.539Z,83.22
2018-10-19T17:43:37.419Z,82.73
2018-10-19T17:46:26.107Z,78.40
2018-10-19T17:49:17.032Z,78.77
2018-10-19T17:52:07.292Z,81.87
2018-10-19T17:54:58.976Z,78.53
2018-10-19T17:57:50.132Z,81.85
2018-10-19T18:00:42.085Z,75.27
2018-10-19T18:03:33.991Z,77.08
2018-10-19T18:06:25.658Z,71.93
2018-10-19T18:09:17.819Z,81.35
2018-10-19T18:12:08.502Z,79.70
2018-10-19T18:15:00.516Z,72.90
2018-10-19T18:17:51.458Z,95.07
2018-10-19T18:20:43.257Z,74.90
2018-10-19T18:23:34.633Z,80.92
2018-10-19T18:26:25.260Z,76.43
2018-10-19T18:29:19.373Z,81.70
2018-10-19T18:32:09.361Z,80.93
2018-10-19T18:35:02.798Z,84.97
2018-10-19T18:37:55.715Z,77.07
2018-10-19T18:40:48.414Z,76.40
2018-10-19T18:43:40.838Z,85.80
2018-10-19T18:46:32.377Z,81.70
2018-10-19T18:49:24.646Z,80.03
2018-10-19T18:52:15.222Z,77.85
2018-10-19T18:55:06.984Z,74.17
2018-10-19T18:57:58.935Z,81.67
2018-10-19T19:00:50.556Z,84.10
2018-10-19T19:03:41.863Z,75.70
2018-10-19T19:06:34.450Z,96.23
2018-10-19T19:09:25.351Z,91.28
2018-10-19T19:12:17.650Z,82.07
2018-10-19T19:15:09.811Z,89.85
2018-10-19T19:18:01.324Z,74.60
2018-10-19T19:20:53.416Z,78.33
2018-10-19T19:23:48.439Z,79.23
2018-10-19T19:26:41.940Z,83.80
2018-10-19T19:29:33.801Z,92.40
2018-10-19T19:32:25.460Z,83.05
2018-10-19T19:35:16.927Z,89.42
2018-10-19T19:38:07.735Z,79.92
2018-10-19T19:41:01.653Z,90.80
2018-10-19T19:43:52.205Z,82.78
2018-10-19T19:46:42.821Z,79.53
2018-10-19T19:49:37.601Z,77.58
2018-10-19T19:52:27.375Z,97.93
2018-10-19T19:55:16.989Z,81.30
2018-10-19T19:58:07.514Z,93.90
2018-10-19T20:00:57.894Z,94.40
2018-10-19T20:03:49.305Z,93.95
2018-10-19T20:06:39.885Z,91.10
2018-10-19T20:09:29.896Z,98.60
2018-10-19T20:12:19.212Z,83.03
2018-10-19T20:15:11.382Z,93.00
2018-10-19T20:18:02.147Z,83.60
2018-10-19T20:20:51.734Z,90.03
2018-10-19T20:23:41.980Z,100.33
2018-10-19T20:26:32.076Z,101.35
2018-10-19T20:29:21.735Z,88.13
2018-10-19T20:32:10.570Z,92.77
2018-10-19T20:34:59.971Z,96.57
2018-10-19T20:37:50.942Z,102.30
2018-10-19T20:40:43.595Z,97.00
2018-10-19T20:43:32.179Z,99.62
2018-10-19T20:46:21.413Z,81.03
2018-10-19T20:49:10.843Z,95.23
2018-10-19T20:52:00.889Z,97.55
2018-10-19T20:54:50.364Z,82.00
2018-10-19T20:57:41.446Z,96.37
2018-10-19T21:00:31.576Z,98.52
2018-10-19T21:03:23.603Z,104.60
2018-10-19T21:06:15.295Z,87.37
2018-10-19T21:09:06.817Z,93.77
2018-10-19T21:11:58.699Z,93.17
2018-10-19T21:14:48.147Z,91.13
2018-10-19T21:17:38.912Z,97.43
2018-10-19T21:20:27.916Z,93.30
2018-10-19T21:23:19.027Z,100.05
2018-10-19T21:26:09.699Z,100.73
2018-10-19T21:29:01.895Z,105.83
2018-10-19T21:31:51.752Z,97.20
2018-10-19T21:34:44.785Z,85.23
2018-10-19T21:37:34.627Z,96.27
2018-10-19T21:40:26.613Z,85.23
2018-10-19T21:43:16.772Z,91.53
2018-10-19T21:46:06.641Z,94.53
2018-10-19T21:48:56.681Z,95.72
2018-10-19T21:51:45.382Z,81.07
2018-10-19T21:54:34.250Z,89.33
2018-10-19T21:57:24.170Z,95.20
2018-10-19T22:00:17.311Z,79.13
2018-10-19T22:03:08.219Z,92.57
2018-10-19T22:05:58.749Z,79.80
2018-10-19T22:08:48.325Z,87.87
2018-10-19T22:11:38.399Z,79.87
2018-10-19T22:14:27.764Z,94.27
2018-10-19T22:17:20.027Z,77.63
2018-10-19T22:20:10.355Z,86.17
2018-10-19T22:23:01.475Z,76.97
2018-10-19T22:25:51.078Z,72.30
2018-10-19T22:28:42.198Z,82.83
2018-10-19T22:31:34.314Z,82.40
2018-10-19T22:34:25.873Z,83.00
2018-10-19T22:37:15.635Z,73.57
2018-10-19T22:40:04.853Z,79.50
2018-10-19T22:42:55.900Z,86.10
2018-10-19T22:45:45.604Z,70.67
2018-10-19T22:48:36.108Z,72.80
2018-10-19T22:51:29.012Z,69.15
2018-10-19T22:54:19.993Z,73.13
2018-10-19T22:57:11.508Z,70.83
2018-10-19T23:00:01.263Z,68.23
2018-10-19T23:02:52.227Z,67.60
2018-10-19T23:05:42.452Z,74.60
2018-10-19T23:08:34.157Z,75.13
2018-10-19T23:11:24.107Z,75.27
2018-10-19T23:14:12.969Z,77.90
2018-10-19T23:17:03.780Z,79.07
2018-10-19T23:19:54.803Z,71.40
2018-10-19T23:22:45.852Z,71.60
2018-10-19T23:25:36.932Z,70.87
2018-10-19T23:28:25.115Z,70.97
2018-10-19T23:31:15.584Z,75.93
2018-10-19T23:34:04.908Z,77.15
2018-10-19T23:36:55.439Z,72.70
2018-10-19T23:39:46.309Z,69.93
2018-10-19T23:42:35.327Z,73.13
2018-10-19T23:45:23.888Z,75.97
2018-10-19T23:48:12.653Z,69.35
2018-10-19T23:51:01.351Z,71.57
2018-10-19T23:53:49.950Z,74.20
2018-10-19T23:56:38.054Z,63.83
2018-10-19T23:59:27.020Z,69.93
